createdAt,value
2022-11-22T00:03:00.892Z,5.10
2022-11-22T00:06:05.666Z,6.15
2022-11-22T00:09:09.820Z,23.05
2022-11-22T00:12:14.326Z,3.33
2022-11-22T00:15:18.965Z,7.93
2022-11-22T00:18:23.253Z,4.57
2022-11-22T00:21:27.566Z,12.30
2022-11-22T00:24:32.023Z,7.32
2022-11-22T00:27:37.136Z,7.82
2022-11-22T00:30:41.945Z,2.97
2022-11-22T00:33:46.188Z,13.38
2022-11-22T00:36:50.329Z,4.07
2022-11-22T00:39:54.695Z,20.88
2022-11-22T00:42:58.986Z,6.25
2022-11-22T00:46:03.414Z,6.88
2022-11-22T00:49:07.562Z,5.40
2022-11-22T00:52:11.990Z,7.38
2022-11-22T00:55:16.347Z,5.03
2022-11-22T00:58:20.698Z,5.05
2022-11-22T01:01:26.609Z,6.28
2022-11-22T01:04:31.163Z,4.05
2022-11-22T01:07:35.813Z,8.82
2022-11-22T01:10:40.001Z,2.85
2022-11-22T01:13:44.615Z,18.60
2022-11-22T01:16:49.488Z,5.75
2022-11-22T01:19:53.996Z,6.82
2022-11-22T01:22:59.745Z,5.20
2022-11-22T01:26:04.093Z,4.30
2022-11-22T01:29:08.636Z,5.72
2022-11-22T01:32:12.856Z,5.60
2022-11-22T01:35:17.409Z,3.75
2022-11-22T01:38:21.560Z,5.47
2022-11-22T01:41:25.932Z,3.08
2022-11-22T01:44:34.109Z,4.30
2022-11-22T01:47:38.653Z,5.72
2022-11-22T01:50:46.116Z,13.30
2022-11-22T01:53:50.749Z,13.80
2022-11-22T01:57:01.857Z,6.72
2022-11-22T02:00:11.487Z,10.27
2022-11-22T02:03:23.735Z,6.32
2022-11-22T02:06:35.601Z,4.50
2022-11-22T02:09:42.190Z,2.53
2022-11-22T02:12:47.052Z,8.35
2022-11-22T02:15:53.512Z,10.93
2022-11-22T02:18:57.728Z,2.42
2022-11-22T02:22:11.710Z,4.15
2022-11-22T02:25:20.835Z,3.88
2022-11-22T02:28:26.536Z,2.58
2022-11-22T02:31:41.035Z,18.05
2022-11-22T02:34:50.584Z,6.30
2022-11-22T02:38:19.108Z,3.33
2022-11-22T02:41:23.357Z,3.35
2022-11-22T02:44:28.628Z,9.20
2022-11-22T02:47:32.970Z,4.78
2022-11-22T02:50:37.954Z,7.80
2022-11-22T02:53:42.390Z,6.13
2022-11-22T02:56:46.727Z,2.85
2022-11-22T02:59:50.927Z,4.88
2022-11-22T03:02:56.002Z,6.97
2022-11-22T03:06:00.562Z,8.63
2022-11-22T03:09:05.315Z,3.00
2022-11-22T03:12:11.548Z,6.30
2022-11-22T03:15:21.010Z,10.65
2022-11-22T03:18:25.623Z,4.15
2022-11-22T03:21:30.565Z,2.42
2022-11-22T03:24:35.296Z,2.33
2022-11-22T03:27:40.342Z,5.53
2022-11-22T03:30:44.998Z,7.20
2022-11-22T03:33:49.476Z,5.70
2022-11-22T03:36:53.824Z,11.50
2022-11-22T03:39:58.067Z,3.63
2022-11-22T03:43:03.791Z,2.60
2022-11-22T03:46:08.080Z,6.10
2022-11-22T03:49:12.944Z,3.67
2022-11-22T03:52:17.664Z,5.55
2022-11-22T03:55:21.764Z,2.75
2022-11-22T03:58:26.136Z,3.25
2022-11-22T04:01:31.076Z,3.90
2022-11-22T04:04:35.522Z,3.00
2022-11-22T04:07:40.195Z,3.05
2022-11-22T04:10:44.741Z,2.75
2022-11-22T04:14:07.076Z,2.83
2022-11-22T04:17:15.270Z,2.38
2022-11-22T04:20:47.126Z,2.85
2022-11-22T04:24:11.226Z,2.53
2022-11-22T04:27:15.936Z,2.92
2022-11-22T04:30:21.057Z,2.38
2022-11-22T04:33:25.893Z,2.65
2022-11-22T04:36:30.347Z,4.82
2022-11-22T04:39:36.621Z,4.50
2022-11-22T04:42:59.137Z,4.88
2022-11-22T04:46:03.747Z,6.60
2022-11-22T04:49:07.929Z,3.08
2022-11-22T04:52:30.894Z,4.18
2022-11-22T04:55:35.359Z,2.83
2022-11-22T04:58:40.041Z,2.33
2022-11-22T05:01:44.459Z,3.17
2022-11-22T05:04:50.799Z,3.63
2022-11-22T05:07:55.412Z,5.25
2022-11-22T05:11:00.407Z,8.90
2022-11-22T05:14:05.256Z,2.78
2022-11-22T05:17:13.168Z,5.35
2022-11-22T05:20:18.293Z,3.50
2022-11-22T05:23:55.356Z,2.83
2022-11-22T05:30:03.536Z,3.10
2022-11-22T05:33:07.975Z,3.00
2022-11-22T05:36:13.633Z,5.15
2022-11-22T05:39:18.024Z,3.47
2022-11-22T05:42:22.950Z,2.35
2022-11-22T05:45:27.786Z,3.67
2022-11-22T05:48:32.409Z,6.70
2022-11-22T05:51:36.754Z,4.70
2022-11-22T05:54:41.062Z,4.20
2022-11-22T05:57:45.441Z,4.55
2022-11-22T06:00:50.041Z,4.25
2022-11-22T06:03:55.454Z,4.75
2022-11-22T06:06:59.693Z,5.18
2022-11-22T06:10:04.433Z,4.07
2022-11-22T06:13:09.861Z,3.67
2022-11-22T06:16:16.484Z,4.75
2022-11-22T06:19:21.026Z,8.27
2022-11-22T06:22:25.194Z,6.20
2022-11-22T06:25:29.483Z,5.03
2022-11-22T06:28:35.283Z,6.70
2022-11-22T06:34:43.697Z,5.15
2022-11-22T06:37:49.734Z,6.22
2022-11-22T06:40:53.913Z,7.15
2022-11-22T06:43:58.510Z,7.55
2022-11-22T06:47:03.145Z,6.82
2022-11-22T06:50:08.240Z,8.75
2022-11-22T06:53:32.295Z,6.80
2022-11-22T06:56:42.233Z,8.55
2022-11-22T06:59:46.688Z,10.10
2022-11-22T07:02:51.011Z,7.47
2022-11-22T07:05:56.379Z,7.53
2022-11-22T07:09:02.592Z,7.97
2022-11-22T07:12:07.499Z,8.85
2022-11-22T07:15:12.429Z,10.02
2022-11-22T07:18:16.864Z,13.82
2022-11-22T07:21:25.629Z,13.10
2022-11-22T07:24:31.112Z,14.30
2022-11-22T07:27:35.294Z,21.70
2022-11-22T07:30:43.883Z,20.73
2022-11-22T07:33:49.061Z,21.42
2022-11-22T07:36:59.671Z,22.13
2022-11-22T07:40:06.448Z,20.92
2022-11-22T07:43:10.797Z,19.70
2022-11-22T07:46:30.570Z,25.92
2022-11-22T07:49:34.731Z,26.35
2022-11-22T07:52:39.855Z,24.15
2022-11-22T07:55:44.126Z,26.88
2022-11-22T07:58:48.593Z,27.13
2022-11-22T08:01:53.002Z,28.33
2022-11-22T08:04:57.371Z,40.92
2022-11-22T08:08:01.629Z,38.55
2022-11-22T08:11:07.669Z,32.38
2022-11-22T08:14:13.185Z,28.05
2022-11-22T08:17:17.661Z,29.48
2022-11-22T08:20:22.005Z,28.08
2022-11-22T08:23:26.514Z,30.17
2022-11-22T08:26:30.758Z,31.75
2022-11-22T08:29:35.682Z,36.55
2022-11-22T08:32:40.290Z,47.90
2022-11-22T08:35:44.845Z,32.83
2022-11-22T08:38:49.204Z,41.42
2022-11-22T08:41:53.613Z,48.67
2022-11-22T08:44:57.742Z,46.08
2022-11-22T08:48:02.116Z,86.03
2022-11-22T08:51:13.479Z,86.47
2022-11-22T08:54:18.136Z,98.72
2022-11-22T08:57:22.547Z,101.65
2022-11-22T09:00:32.935Z,98.88
2022-11-22T09:03:38.624Z,120.15
2022-11-22T09:10:11.733Z,159.75
2022-11-22T09:13:17.063Z,116.75
2022-11-22T09:16:22.302Z,121.25
2022-11-22T09:19:27.194Z,139.63
2022-11-22T09:22:35.416Z,149.07
2022-11-22T09:25:40.313Z,149.77
2022-11-22T09:28:45.427Z,134.88
2022-11-22T09:31:50.607Z,131.35
2022-11-22T09:34:55.130Z,140.63
2022-11-22T09:37:59.660Z,148.43
2022-11-22T09:41:25.407Z,131.07
2022-11-22T09:44:48.534Z,137.80
2022-11-22T09:48:22.032Z,121.70
2022-11-22T09:51:35.679Z,121.85
2022-11-22T09:55:05.908Z,125.75
2022-11-22T09:58:32.633Z,105.47
2022-11-22T10:02:18.256Z,94.25
2022-11-22T10:05:30.824Z,102.32
2022-11-22T10:08:58.688Z,102.68
2022-11-22T10:12:24.141Z,105.75
2022-11-22T10:15:49.316Z,106.30
2022-11-22T10:19:09.539Z,81.93
2022-11-22T10:22:16.075Z,73.70
2022-11-22T10:25:47.038Z,71.63
2022-11-22T10:29:32.166Z,75.85
2022-11-22T10:32:50.716Z,77.07
2022-11-22T10:36:10.529Z,82.40
2022-11-22T10:39:21.034Z,72.45
2022-11-22T10:43:03.718Z,78.70
2022-11-22T10:46:25.230Z,71.90
2022-11-22T10:49:53.820Z,74.43
2022-11-22T10:53:24.610Z,60.10
2022-11-22T10:56:35.949Z,47.38
2022-11-22T10:59:56.604Z,69.25
2022-11-22T11:03:28.196Z,53.58
2022-11-22T11:07:04.579Z,52.88
2022-11-22T11:10:29.285Z,37.13
2022-11-22T11:13:43.377Z,69.45
2022-11-22T11:16:48.334Z,209.65
2022-11-22T11:19:56.472Z,101.80
2022-11-22T11:23:16.750Z,70.70
2022-11-22T11:26:29.586Z,86.10
2022-11-22T11:29:42.562Z,79.10
2022-11-22T11:32:57.887Z,77.03
2022-11-22T11:36:17.622Z,62.10
2022-11-22T11:39:26.709Z,56.60
2022-11-22T11:42:34.189Z,78.97
2022-11-22T11:45:38.468Z,61.45
2022-11-22T11:48:44.375Z,59.45
2022-11-22T11:51:54.513Z,52.75
2022-11-22T11:55:04.253Z,51.42
2022-11-22T11:58:35.130Z,50.90
2022-11-22T12:02:15.852Z,48.88
2022-11-22T12:05:20.379Z,45.08
2022-11-22T12:08:33.264Z,49.30
2022-11-22T12:11:49.917Z,47.80
2022-11-22T12:15:36.741Z,69.30
2022-11-22T12:18:51.485Z,65.15
2022-11-22T12:22:29.349Z,58.85
2022-11-22T12:25:43.567Z,54.63
2022-11-22T12:28:50.117Z,46.17
2022-11-22T12:32:28.418Z,41.97
2022-11-22T12:35:45.158Z,33.63
2022-11-22T12:38:54.053Z,37.30
2022-11-22T12:42:24.546Z,38.70
2022-11-22T12:45:40.962Z,34.03
2022-11-22T12:49:06.879Z,32.83
2022-11-22T12:52:34.110Z,31.95
2022-11-22T12:56:26.148Z,26.90
2022-11-22T13:00:15.508Z,37.65
2022-11-22T13:03:31.358Z,40.42
2022-11-22T13:06:46.469Z,31.30
2022-11-22T13:10:04.790Z,27.05
2022-11-22T13:13:29.147Z,26.25
2022-11-22T13:16:34.894Z,33.92
2022-11-22T13:19:58.526Z,40.63
2022-11-22T13:23:21.474Z,42.10
2022-11-22T13:26:44.515Z,43.58
2022-11-22T13:29:53.560Z,34.88
2022-11-22T13:33:00.921Z,35.35
2022-11-22T13:36:27.068Z,38.20
2022-11-22T13:42:36.738Z,30.20
2022-11-22T13:46:04.956Z,46.78
2022-11-22T13:49:33.879Z,58.53
2022-11-22T13:52:54.218Z,80.80
2022-11-22T13:56:20.427Z,46.08
2022-11-22T14:02:29.218Z,47.90
2022-11-22T14:05:38.084Z,44.03
2022-11-22T14:08:45.721Z,37.90
2022-11-22T14:12:12.096Z,88.70
2022-11-22T14:15:56.992Z,112.18
2022-11-22T14:19:21.862Z,109.57
2022-11-22T14:22:35.078Z,44.55
2022-11-22T14:25:57.844Z,44.00
2022-11-22T14:29:35.642Z,42.67
2022-11-22T14:32:44.617Z,33.55
2022-11-22T14:36:07.564Z,34.50
2022-11-22T14:39:46.337Z,38.53
2022-11-22T14:42:54.471Z,37.10
2022-11-22T14:46:51.253Z,38.47
2022-11-22T14:49:54.533Z,39.67
2022-11-22T14:53:20.108Z,35.65
2022-11-22T14:56:29.370Z,47.15
2022-11-22T14:59:58.299Z,48.50
2022-11-22T15:03:12.856Z,42.13
2022-11-22T15:09:20.093Z,54.22
2022-11-22T15:10:16.911Z,90.22
2022-11-22T15:13:31.381Z,58.92
2022-11-22T15:58:23.223Z,58.58
2022-11-22T16:01:28.557Z,40.55
2022-11-22T16:04:37.789Z,49.58
2022-11-22T16:07:48.443Z,45.67
2022-11-22T16:10:53.222Z,43.38
2022-11-22T16:13:57.838Z,44.37
2022-11-22T16:17:24.623Z,42.65
2022-11-22T16:20:32.179Z,42.50
2022-11-22T16:23:38.394Z,44.15
2022-11-22T16:26:44.151Z,42.33
2022-11-22T16:32:59.392Z,41.90
2022-11-22T16:36:06.702Z,42.55
2022-11-22T16:39:11.506Z,41.28
2022-11-22T16:42:16.086Z,48.47
2022-11-22T16:45:22.819Z,43.17
2022-11-22T16:48:33.240Z,44.70
2022-11-22T16:51:38.566Z,45.35
2022-11-22T16:54:43.270Z,43.70
2022-11-22T16:57:48.099Z,44.90
2022-11-22T17:00:54.928Z,40.75
2022-11-22T17:04:01.645Z,40.25
2022-11-22T17:07:13.926Z,37.95
2022-11-22T17:10:19.033Z,37.47
2022-11-22T17:13:26.727Z,31.00
2022-11-22T17:16:31.464Z,33.65
2022-11-22T17:19:52.697Z,30.87
2022-11-22T17:22:58.646Z,26.20
2022-11-22T17:26:06.297Z,25.70
2022-11-22T17:29:18.296Z,30.95
2022-11-22T17:32:36.073Z,30.13
2022-11-22T17:35:41.048Z,29.58
2022-11-22T17:38:45.686Z,30.38
2022-11-22T17:41:50.913Z,33.67
2022-11-22T17:44:55.295Z,33.00
2022-11-22T17:48:00.134Z,31.17
2022-11-22T17:51:12.723Z,30.75
2022-11-22T17:54:17.337Z,30.05
2022-11-22T17:57:22.184Z,28.42
2022-11-22T18:00:30.013Z,30.45
2022-11-22T18:03:35.394Z,31.10
2022-11-22T18:06:39.883Z,36.72
2022-11-22T18:09:44.161Z,31.60
2022-11-22T18:13:13.646Z,31.50
2022-11-22T18:16:19.293Z,30.60
2022-11-22T18:19:24.486Z,32.22
2022-11-22T18:22:29.461Z,30.67
2022-11-22T18:25:33.879Z,30.00
2022-11-22T18:28:40.595Z,29.88
2022-11-22T18:31:52.086Z,30.35
2022-11-22T18:34:57.158Z,27.40
2022-11-22T18:38:02.027Z,29.47
2022-11-22T18:41:06.736Z,27.93
2022-11-22T18:44:11.039Z,25.50
2022-11-22T18:47:15.982Z,18.52
2022-11-22T18:50:20.583Z,24.83
2022-11-22T18:53:26.867Z,23.15
2022-11-22T18:56:31.348Z,24.65
2022-11-22T18:59:36.017Z,23.85
2022-11-22T19:02:40.502Z,21.17
2022-11-22T19:08:50.464Z,18.40
2022-11-22T19:11:58.785Z,19.55
2022-11-22T19:15:03.282Z,22.83
2022-11-22T19:18:10.471Z,20.63
2022-11-22T19:21:17.279Z,22.23
2022-11-22T19:24:21.713Z,21.17
2022-11-22T19:27:26.081Z,26.02
2022-11-22T19:30:30.383Z,22.88
2022-11-22T19:33:41.446Z,20.92
2022-11-22T19:36:45.895Z,23.58
2022-11-22T19:39:50.637Z,26.60
2022-11-22T19:42:55.115Z,86.43
2022-11-22T19:46:02.743Z,49.25
2022-11-22T19:49:07.602Z,23.73
2022-11-22T19:52:12.325Z,26.55
2022-11-22T19:55:16.835Z,26.25
2022-11-22T19:58:21.320Z,30.33
2022-11-22T20:01:28.195Z,24.80
2022-11-22T20:04:32.859Z,23.90
2022-11-22T20:07:38.018Z,25.45
2022-11-22T20:10:43.452Z,32.92
2022-11-22T20:13:51.132Z,30.60
2022-11-22T20:16:55.549Z,27.77
2022-11-22T20:20:00.251Z,23.95
2022-11-22T20:23:04.618Z,25.40
2022-11-22T20:26:11.471Z,24.42
2022-11-22T20:29:16.926Z,27.35
2022-11-22T20:32:21.596Z,43.22
2022-11-22T20:35:26.081Z,40.58
2022-11-22T20:38:33.620Z,33.43
2022-11-22T20:41:38.979Z,117.65
2022-11-22T20:44:43.432Z,52.10
2022-11-22T20:47:47.786Z,31.83
2022-11-22T20:50:53.261Z,47.60
2022-11-22T20:53:58.839Z,40.10
2022-11-22T21:00:08.543Z,38.85
2022-11-22T21:03:12.867Z,32.45
2022-11-22T21:06:20.140Z,29.83
2022-11-22T21:09:24.596Z,28.77
2022-11-22T21:12:28.837Z,33.67
2022-11-22T21:15:33.309Z,38.97
2022-11-22T21:18:37.800Z,39.10
2022-11-22T21:21:42.233Z,30.88
2022-11-22T21:24:46.485Z,33.80
2022-11-22T21:27:50.864Z,33.25
2022-11-22T21:30:59.179Z,32.93
2022-11-22T21:34:03.417Z,34.35
2022-11-22T21:37:07.943Z,33.70
2022-11-22T21:40:13.565Z,35.95
2022-11-22T21:43:17.939Z,31.30
2022-11-22T21:46:22.093Z,36.42
2022-11-22T21:49:26.659Z,41.10
2022-11-22T21:52:32.902Z,36.50
2022-11-22T21:55:37.031Z,41.40
2022-11-22T21:58:41.279Z,37.47
2022-11-22T22:01:45.718Z,37.95
2022-11-22T22:04:50.013Z,38.15
2022-11-22T22:07:54.624Z,36.67
2022-11-22T22:10:59.702Z,36.35
2022-11-22T22:14:04.278Z,35.90
2022-11-22T22:17:08.600Z,25.73
2022-11-22T22:20:13.227Z,32.50
2022-11-22T22:23:17.500Z,32.78
2022-11-22T22:26:21.877Z,33.37
2022-11-22T22:29:26.137Z,27.95
2022-11-22T22:32:30.247Z,24.02
2022-11-22T22:35:34.716Z,19.75
2022-11-22T22:38:39.545Z,17.27
2022-11-22T22:41:43.877Z,16.95
2022-11-22T22:44:48.335Z,17.25
2022-11-22T22:47:52.721Z,16.90
2022-11-22T22:50:56.969Z,15.80
2022-11-22T22:54:02.220Z,19.35
2022-11-22T22:57:06.562Z,17.95
2022-11-22T23:00:14.376Z,19.30
2022-11-22T23:03:18.619Z,24.55
2022-11-22T23:06:23.564Z,25.38
2022-11-22T23:09:28.028Z,41.13
2022-11-22T23:12:32.340Z,42.35
2022-11-22T23:15:57.427Z,40.88
2022-11-22T23:22:07.509Z,91.30
2022-11-22T23:25:11.830Z,36.70
2022-11-22T23:28:16.594Z,32.33
2022-11-22T23:31:21.861Z,23.02
2022-11-22T23:34:26.518Z,16.95
2022-11-22T23:37:30.610Z,17.48
2022-11-22T23:40:34.770Z,24.20
2022-11-22T23:43:39.109Z,26.30
2022-11-22T23:46:43.459Z,19.38
2022-11-22T23:49:47.707Z,20.05
2022-11-22T23:52:57.607Z,20.42
2022-11-22T23:56:15.863Z,21.27
2022-11-22T23:59:22.502Z,20.30
